sensor_id;sensor_type;location;lat;lon;timestamp;P1;durP1;ratioP1;P2;durP2;ratioP2
23119;SDS011;11729;50.836;4.330;2023-10-31T00:01:27;4.30;;;4.10;;
23119;SDS011;11729;50.836;4.330;2023-10-31T00:03:53;4.13;;;3.92;;
23119;SDS011;11729;50.836;4.330;2023-10-31T00:06:18;4.10;;;3.90;;
23119;SDS011;11729;50.836;4.330;2023-10-31T00:08:44;4.72;;;4.53;;
23119;SDS011;11729;50.836;4.330;2023-10-31T00:11:10;4.10;;;3.90;;
23119;SDS011;11729;50.836;4.330;2023-10-31T00:13:36;5.22;;;4.88;;
23119;SDS011;11729;50.836;4.330;2023-10-31T00:16:02;4.20;;;4.00;;
23119;SDS011;11729;50.836;4.330;2023-10-31T00:18:28;4.30;;;4.10;;
23119;SDS011;11729;50.836;4.330;2023-10-31T00:20:54;4.28;;;4.07;;
23119;SDS011;11729;50.836;4.330;2023-10-31T00:23:19;4.35;;;4.15;;
23119;SDS011;11729;50.836;4.330;2023-10-31T00:25:47;4.33;;;4.13;;
23119;SDS011;11729;50.836;4.330;2023-10-31T00:28:12;6.20;;;5.85;;
23119;SDS011;11729;50.836;4.330;2023-10-31T00:30:38;4.00;;;3.80;;
23119;SDS011;11729;50.836;4.330;2023-10-31T00:33:04;4.00;;;3.80;;
23119;SDS011;11729;50.836;4.330;2023-10-31T00:35:30;4.00;;;3.80;;
23119;SDS011;11729;50.836;4.330;2023-10-31T00:37:56;4.20;;;4.00;;
23119;SDS011;11729;50.836;4.330;2023-10-31T00:40:21;4.30;;;4.10;;
23119;SDS011;11729;50.836;4.330;2023-10-31T00:42:47;4.22;;;4.03;;
23119;SDS011;11729;50.836;4.330;2023-10-31T00:45:13;4.40;;;4.20;;
23119;SDS011;11729;50.836;4.330;2023-10-31T00:47:38;4.38;;;4.18;;
23119;SDS011;11729;50.836;4.330;2023-10-31T00:50:04;5.32;;;5.03;;
23119;SDS011;11729;50.836;4.330;2023-10-31T00:52:30;4.20;;;4.00;;
23119;SDS011;11729;50.836;4.330;2023-10-31T00:54:56;4.40;;;4.20;;
23119;SDS011;11729;50.836;4.330;2023-10-31T00:57:22;4.40;;;4.20;;
23119;SDS011;11729;50.836;4.330;2023-10-31T00:59:47;4.20;;;4.00;;
23119;SDS011;11729;50.836;4.330;2023-10-31T01:02:13;4.30;;;4.10;;
23119;SDS011;11729;50.836;4.330;2023-10-31T01:04:38;4.50;;;4.30;;
23119;SDS011;11729;50.836;4.330;2023-10-31T01:07:04;4.65;;;4.45;;
23119;SDS011;11729;50.836;4.330;2023-10-31T01:09:30;4.22;;;4.03;;
23119;SDS011;11729;50.836;4.330;2023-10-31T01:11:55;4.20;;;4.00;;
23119;SDS011;11729;50.836;4.330;2023-10-31T01:14:21;4.13;;;3.92;;
23119;SDS011;11729;50.836;4.330;2023-10-31T01:16:47;4.40;;;4.20;;
23119;SDS011;11729;50.836;4.330;2023-10-31T01:19:12;4.10;;;3.90;;
23119;SDS011;11729;50.836;4.330;2023-10-31T01:21:38;4.30;;;4.10;;
23119;SDS011;11729;50.836;4.330;2023-10-31T01:24:04;4.43;;;4.22;;
23119;SDS011;11729;50.836;4.330;2023-10-31T01:26:29;15.52;;;5.55;;
23119;SDS011;11729;50.836;4.330;2023-10-31T01:28:55;4.53;;;4.25;;
23119;SDS011;11729;50.836;4.330;2023-10-31T01:31:21;4.10;;;3.90;;
23119;SDS011;11729;50.836;4.330;2023-10-31T01:33:46;4.15;;;3.95;;
23119;SDS011;11729;50.836;4.330;2023-10-31T01:36:12;4.30;;;4.10;;
23119;SDS011;11729;50.836;4.330;2023-10-31T01:38:39;4.22;;;4.03;;
23119;SDS011;11729;50.836;4.330;2023-10-31T01:41:06;5.10;;;4.90;;
23119;SDS011;11729;50.836;4.330;2023-10-31T01:43:32;4.20;;;4.00;;
23119;SDS011;11729;50.836;4.330;2023-10-31T01:46:02;4.40;;;4.20;;
23119;SDS011;11729;50.836;4.330;2023-10-31T01:48:32;4.80;;;4.50;;
23119;SDS011;11729;50.836;4.330;2023-10-31T01:50:59;4.47;;;4.28;;
23119;SDS011;11729;50.836;4.330;2023-10-31T01:53:29;4.30;;;4.10;;
23119;SDS011;11729;50.836;4.330;2023-10-31T01:55:58;4.45;;;4.25;;
23119;SDS011;11729;50.836;4.330;2023-10-31T01:58:28;4.32;;;4.13;;
23119;SDS011;11729;50.836;4.330;2023-10-31T02:01:02;4.45;;;4.25;;
23119;SDS011;11729;50.836;4.330;2023-10-31T02:03:28;4.50;;;4.30;;
23119;SDS011;11729;50.836;4.330;2023-10-31T02:05:54;4.30;;;4.10;;
23119;SDS011;11729;50.836;4.330;2023-10-31T02:08:21;4.35;;;4.15;;
23119;SDS011;11729;50.836;4.330;2023-10-31T02:10:46;4.15;;;3.95;;
23119;SDS011;11729;50.836;4.330;2023-10-31T02:13:16;5.30;;;5.00;;
23119;SDS011;11729;50.836;4.330;2023-10-31T02:15:43;4.18;;;3.97;;
23119;SDS011;11729;50.836;4.330;2023-10-31T02:18:09;4.30;;;4.10;;
23119;SDS011;11729;50.836;4.330;2023-10-31T02:20:35;4.32;;;4.13;;
23119;SDS011;11729;50.836;4.330;2023-10-31T02:23:01;5.50;;;5.10;;
23119;SDS011;11729;50.836;4.330;2023-10-31T02:25:27;4.30;;;4.10;;
23119;SDS011;11729;50.836;4.330;2023-10-31T02:27:53;4.40;;;4.20;;
23119;SDS011;11729;50.836;4.330;2023-10-31T02:30:19;4.20;;;4.00;;
23119;SDS011;11729;50.836;4.330;2023-10-31T02:32:45;4.30;;;4.10;;
23119;SDS011;11729;50.836;4.330;2023-10-31T02:35:10;4.40;;;4.20;;
23119;SDS011;11729;50.836;4.330;2023-10-31T02:37:36;4.43;;;4.22;;
23119;SDS011;11729;50.836;4.330;2023-10-31T02:40:02;4.40;;;4.20;;
23119;SDS011;11729;50.836;4.330;2023-10-31T02:42:28;4.45;;;4.25;;
23119;SDS011;11729;50.836;4.330;2023-10-31T02:44:54;4.30;;;4.10;;
23119;SDS011;11729;50.836;4.330;2023-10-31T02:47:19;4.40;;;4.20;;
23119;SDS011;11729;50.836;4.330;2023-10-31T02:49:45;4.20;;;4.00;;
23119;SDS011;11729;50.836;4.330;2023-10-31T02:52:12;4.40;;;4.20;;
23119;SDS011;11729;50.836;4.330;2023-10-31T02:54:37;4.22;;;4.03;;
23119;SDS011;11729;50.836;4.330;2023-10-31T02:57:03;4.35;;;4.15;;
23119;SDS011;11729;50.836;4.330;2023-10-31T02:59:29;4.43;;;4.22;;
23119;SDS011;11729;50.836;4.330;2023-10-31T03:01:55;4.40;;;4.20;;
23119;SDS011;11729;50.836;4.330;2023-10-31T03:04:22;4.43;;;4.22;;
23119;SDS011;11729;50.836;4.330;2023-10-31T03:06:47;4.40;;;4.20;;
23119;SDS011;11729;50.836;4.330;2023-10-31T03:09:13;4.30;;;4.10;;
23119;SDS011;11729;50.836;4.330;2023-10-31T03:11:39;4.30;;;4.10;;
23119;SDS011;11729;50.836;4.330;2023-10-31T03:14:04;4.90;;;4.60;;
23119;SDS011;11729;50.836;4.330;2023-10-31T03:16:30;4.18;;;3.97;;
23119;SDS011;11729;50.836;4.330;2023-10-31T03:18:56;4.40;;;4.20;;
23119;SDS011;11729;50.836;4.330;2023-10-31T03:21:21;4.13;;;3.92;;
23119;SDS011;11729;50.836;4.330;2023-10-31T03:23:47;4.18;;;3.97;;
23119;SDS011;11729;50.836;4.330;2023-10-31T03:26:14;4.10;;;3.90;;
23119;SDS011;11729;50.836;4.330;2023-10-31T03:28:43;7.22;;;6.22;;
23119;SDS011;11729;50.836;4.330;2023-10-31T03:31:09;4.30;;;4.10;;
23119;SDS011;11729;50.836;4.330;2023-10-31T03:33:37;4.30;;;4.10;;
23119;SDS011;11729;50.836;4.330;2023-10-31T03:36:02;6.28;;;5.90;;
23119;SDS011;11729;50.836;4.330;2023-10-31T03:38:29;4.30;;;4.10;;
23119;SDS011;11729;50.836;4.330;2023-10-31T03:40:54;4.60;;;4.40;;
23119;SDS011;11729;50.836;4.330;2023-10-31T03:43:20;4.30;;;4.10;;
23119;SDS011;11729;50.836;4.330;2023-10-31T03:45:46;4.28;;;4.07;;
23119;SDS011;11729;50.836;4.330;2023-10-31T03:48:12;4.38;;;4.18;;
23119;SDS011;11729;50.836;4.330;2023-10-31T03:50:38;4.20;;;4.00;;
23119;SDS011;11729;50.836;4.330;2023-10-31T03:53:04;4.40;;;4.20;;
23119;SDS011;11729;50.836;4.330;2023-10-31T03:55:29;4.30;;;4.10;;
23119;SDS011;11729;50.836;4.330;2023-10-31T03:57:55;4.35;;;4.15;;
23119;SDS011;11729;50.836;4.330;2023-10-31T04:00:22;4.20;;;4.00;;
23119;SDS011;11729;50.836;4.330;2023-10-31T04:02:48;5.07;;;4.78;;
23119;SDS011;11729;50.836;4.330;2023-10-31T04:05:13;4.57;;;4.38;;
23119;SDS011;11729;50.836;4.330;2023-10-31T04:07:39;15.20;;;13.15;;
23119;SDS011;11729;50.836;4.330;2023-10-31T04:10:05;18.45;;;15.60;;
23119;SDS011;11729;50.836;4.330;2023-10-31T04:12:31;19.30;;;15.05;;
23119;SDS011;11729;50.836;4.330;2023-10-31T04:14:57;17.48;;;15.65;;
23119;SDS011;11729;50.836;4.330;2023-10-31T04:17:22;25.38;;;16.00;;
23119;SDS011;11729;50.836;4.330;2023-10-31T04:19:48;18.00;;;15.77;;
23119;SDS011;11729;50.836;4.330;2023-10-31T04:22:14;25.48;;;16.25;;
23119;SDS011;11729;50.836;4.330;2023-10-31T04:24:39;18.88;;;16.90;;
23119;SDS011;11729;50.836;4.330;2023-10-31T04:27:06;24.00;;;16.70;;
23119;SDS011;11729;50.836;4.330;2023-10-31T04:29:32;19.83;;;16.40;;
23119;SDS011;11729;50.836;4.330;2023-10-31T04:31:58;18.92;;;16.65;;
23119;SDS011;11729;50.836;4.330;2023-10-31T04:34:23;23.77;;;16.55;;
23119;SDS011;11729;50.836;4.330;2023-10-31T04:36:49;20.10;;;17.08;;
23119;SDS011;11729;50.836;4.330;2023-10-31T04:39:14;22.77;;;17.88;;
23119;SDS011;11729;50.836;4.330;2023-10-31T04:41:40;22.45;;;17.48;;
23119;SDS011;11729;50.836;4.330;2023-10-31T04:44:06;23.45;;;17.90;;
23119;SDS011;11729;50.836;4.330;2023-10-31T04:46:31;25.50;;;18.92;;
23119;SDS011;11729;50.836;4.330;2023-10-31T04:48:57;21.92;;;18.92;;
23119;SDS011;11729;50.836;4.330;2023-10-31T04:51:22;26.58;;;18.92;;
23119;SDS011;11729;50.836;4.330;2023-10-31T04:53:48;23.92;;;18.95;;
23119;SDS011;11729;50.836;4.330;2023-10-31T04:56:14;25.20;;;19.85;;
23119;SDS011;11729;50.836;4.330;2023-10-31T04:58:41;26.65;;;19.48;;
23119;SDS011;11729;50.836;4.330;2023-10-31T05:01:08;24.65;;;19.40;;
23119;SDS011;11729;50.836;4.330;2023-10-31T05:03:34;26.52;;;19.38;;
23119;SDS011;11729;50.836;4.330;2023-10-31T05:06:00;25.08;;;20.15;;
23119;SDS011;11729;50.836;4.330;2023-10-31T05:08:25;26.58;;;19.33;;
23119;SDS011;11729;50.836;4.330;2023-10-31T05:10:51;27.58;;;20.17;;
23119;SDS011;11729;50.836;4.330;2023-10-31T05:13:16;25.70;;;19.25;;
23119;SDS011;11729;50.836;4.330;2023-10-31T05:15:42;23.52;;;19.17;;
23119;SDS011;11729;50.836;4.330;2023-10-31T05:18:07;21.67;;;18.17;;
23119;SDS011;11729;50.836;4.330;2023-10-31T05:20:33;25.40;;;18.83;;
23119;SDS011;11729;50.836;4.330;2023-10-31T05:22:58;21.10;;;17.70;;
23119;SDS011;11729;50.836;4.330;2023-10-31T05:25:25;23.27;;;18.55;;
23119;SDS011;11729;50.836;4.330;2023-10-31T05:27:50;21.33;;;17.75;;
23119;SDS011;11729;50.836;4.330;2023-10-31T05:30:17;23.40;;;18.17;;
23119;SDS011;11729;50.836;4.330;2023-10-31T05:32:43;20.35;;;17.27;;
23119;SDS011;11729;50.836;4.330;2023-10-31T05:35:09;19.50;;;17.40;;
23119;SDS011;11729;50.836;4.330;2023-10-31T05:37:35;20.05;;;17.85;;
23119;SDS011;11729;50.836;4.330;2023-10-31T05:40:03;19.83;;;17.60;;
23119;SDS011;11729;50.836;4.330;2023-10-31T05:44:55;22.98;;;17.70;;
23119;SDS011;11729;50.836;4.330;2023-10-31T05:47:22;23.70;;;18.83;;
23119;SDS011;11729;50.836;4.330;2023-10-31T05:49:47;23.40;;;18.08;;
23119;SDS011;11729;50.836;4.330;2023-10-31T05:52:13;29.15;;;21.60;;
23119;SDS011;11729;50.836;4.330;2023-10-31T05:54:39;19.38;;;17.13;;
23119;SDS011;11729;50.836;4.330;2023-10-31T05:57:05;24.15;;;18.92;;
23119;SDS011;11729;50.836;4.330;2023-10-31T05:59:31;23.95;;;18.02;;
23119;SDS011;11729;50.836;4.330;2023-10-31T06:01:57;20.95;;;17.65;;
23119;SDS011;11729;50.836;4.330;2023-10-31T06:04:23;19.70;;;17.50;;
23119;SDS011;11729;50.836;4.330;2023-10-31T06:06:50;21.63;;;17.02;;
23119;SDS011;11729;50.836;4.330;2023-10-31T06:09:15;19.20;;;16.70;;
23119;SDS011;11729;50.836;4.330;2023-10-31T06:11:42;19.85;;;17.27;;
23119;SDS011;11729;50.836;4.330;2023-10-31T06:14:09;18.75;;;16.48;;
23119;SDS011;11729;50.836;4.330;2023-10-31T06:16:40;20.58;;;17.17;;
23119;SDS011;11729;50.836;4.330;2023-10-31T06:19:08;19.45;;;16.58;;
23119;SDS011;11729;50.836;4.330;2023-10-31T06:21:36;20.40;;;17.13;;
23119;SDS011;11729;50.836;4.330;2023-10-31T06:24:04;19.65;;;16.42;;
23119;SDS011;11729;50.836;4.330;2023-10-31T06:26:32;17.17;;;15.35;;
23119;SDS011;11729;50.836;4.330;2023-10-31T06:28:57;22.33;;;16.70;;
23119;SDS011;11729;50.836;4.330;2023-10-31T06:31:23;17.10;;;15.30;;
23119;SDS011;11729;50.836;4.330;2023-10-31T06:33:49;17.75;;;15.00;;
23119;SDS011;11729;50.836;4.330;2023-10-31T06:36:14;16.73;;;14.70;;
23119;SDS011;11729;50.836;4.330;2023-10-31T06:38:40;22.20;;;15.65;;
23119;SDS011;11729;50.836;4.330;2023-10-31T06:41:06;17.45;;;15.10;;
23119;SDS011;11729;50.836;4.330;2023-10-31T06:43:32;16.77;;;14.57;;
23119;SDS011;11729;50.836;4.330;2023-10-31T06:45:57;16.98;;;15.18;;
23119;SDS011;11729;50.836;4.330;2023-10-31T06:48:25;16.98;;;14.73;;
23119;SDS011;11729;50.836;4.330;2023-10-31T06:50:51;18.00;;;15.00;;
23119;SDS011;11729;50.836;4.330;2023-10-31T06:53:16;23.98;;;17.02;;
23119;SDS011;11729;50.836;4.330;2023-10-31T06:55:42;16.17;;;14.43;;
23119;SDS011;11729;50.836;4.330;2023-10-31T06:58:07;17.05;;;15.15;;
23119;SDS011;11729;50.836;4.330;2023-10-31T07:00:33;16.73;;;14.95;;
23119;SDS011;11729;50.836;4.330;2023-10-31T07:02:59;15.30;;;13.48;;
23119;SDS011;11729;50.836;4.330;2023-10-31T07:05:29;16.27;;;13.82;;
23119;SDS011;11729;50.836;4.330;2023-10-31T07:07:55;15.75;;;13.95;;
23119;SDS011;11729;50.836;4.330;2023-10-31T07:10:21;14.50;;;13.10;;
23119;SDS011;11729;50.836;4.330;2023-10-31T07:12:47;16.15;;;13.25;;
23119;SDS011;11729;50.836;4.330;2023-10-31T07:15:12;19.25;;;13.48;;
23119;SDS011;11729;50.836;4.330;2023-10-31T07:17:38;16.67;;;13.13;;
23119;SDS011;11729;50.836;4.330;2023-10-31T07:20:04;18.02;;;13.82;;
23119;SDS011;11729;50.836;4.330;2023-10-31T07:22:31;15.10;;;13.57;;
23119;SDS011;11729;50.836;4.330;2023-10-31T07:24:57;14.55;;;12.73;;
23119;SDS011;11729;50.836;4.330;2023-10-31T07:27:24;16.23;;;13.53;;
23119;SDS011;11729;50.836;4.330;2023-10-31T07:29:50;14.35;;;12.90;;
23119;SDS011;11729;50.836;4.330;2023-10-31T07:32:16;14.60;;;12.57;;
23119;SDS011;11729;50.836;4.330;2023-10-31T07:34:42;14.35;;;12.90;;
23119;SDS011;11729;50.836;4.330;2023-10-31T07:37:09;14.30;;;12.93;;
23119;SDS011;11729;50.836;4.330;2023-10-31T07:39:34;19.00;;;13.25;;
23119;SDS011;11729;50.836;4.330;2023-10-31T07:42:00;14.40;;;12.63;;
23119;SDS011;11729;50.836;4.330;2023-10-31T07:44:26;15.70;;;12.98;;
23119;SDS011;11729;50.836;4.330;2023-10-31T07:46:51;15.40;;;11.82;;
23119;SDS011;11729;50.836;4.330;2023-10-31T07:49:17;16.13;;;12.68;;
23119;SDS011;11729;50.836;4.330;2023-10-31T07:51:43;13.48;;;11.90;;
23119;SDS011;11729;50.836;4.330;2023-10-31T07:54:10;14.85;;;11.40;;
23119;SDS011;11729;50.836;4.330;2023-10-31T07:56:37;16.70;;;11.48;;
23119;SDS011;11729;50.836;4.330;2023-10-31T07:59:04;16.77;;;12.00;;
23119;SDS011;11729;50.836;4.330;2023-10-31T08:01:31;12.20;;;10.95;;
23119;SDS011;11729;50.836;4.330;2023-10-31T08:03:56;11.52;;;10.40;;
23119;SDS011;11729;50.836;4.330;2023-10-31T08:06:22;12.82;;;10.10;;
23119;SDS011;11729;50.836;4.330;2023-10-31T08:08:48;14.65;;;10.40;;
23119;SDS011;11729;50.836;4.330;2023-10-31T08:11:14;10.38;;;9.38;;
23119;SDS011;11729;50.836;4.330;2023-10-31T08:13:39;11.18;;;8.77;;
23119;SDS011;11729;50.836;4.330;2023-10-31T08:16:06;10.18;;;9.18;;
23119;SDS011;11729;50.836;4.330;2023-10-31T08:18:32;12.27;;;8.90;;
23119;SDS011;11729;50.836;4.330;2023-10-31T08:20:58;10.88;;;8.65;;
23119;SDS011;11729;50.836;4.330;2023-10-31T08:23:24;10.55;;;8.30;;
23119;SDS011;11729;50.836;4.330;2023-10-31T08:25:50;9.85;;;8.77;;
23119;SDS011;11729;50.836;4.330;2023-10-31T08:28:16;14.27;;;8.77;;
23119;SDS011;11729;50.836;4.330;2023-10-31T08:30:42;9.00;;;8.18;;
23119;SDS011;11729;50.836;4.330;2023-10-31T08:33:07;10.07;;;8.52;;
23119;SDS011;11729;50.836;4.330;2023-10-31T08:35:33;10.80;;;8.77;;
23119;SDS011;11729;50.836;4.330;2023-10-31T08:37:59;9.65;;;8.27;;
23119;SDS011;11729;50.836;4.330;2023-10-31T08:40:24;10.88;;;8.55;;
23119;SDS011;11729;50.836;4.330;2023-10-31T08:42:50;13.05;;;8.82;;
23119;SDS011;11729;50.836;4.330;2023-10-31T08:45:16;9.30;;;8.40;;
23119;SDS011;11729;50.836;4.330;2023-10-31T08:47:41;13.00;;;8.27;;
23119;SDS011;11729;50.836;4.330;2023-10-31T08:50:07;11.32;;;8.25;;
23119;SDS011;11729;50.836;4.330;2023-10-31T08:52:36;8.85;;;8.00;;
23119;SDS011;11729;50.836;4.330;2023-10-31T08:55:02;10.35;;;7.97;;
23119;SDS011;11729;50.836;4.330;2023-10-31T08:57:29;12.52;;;8.35;;
23119;SDS011;11729;50.836;4.330;2023-10-31T08:59:54;17.88;;;8.20;;
23119;SDS011;11729;50.836;4.330;2023-10-31T09:02:20;12.43;;;8.15;;
23119;SDS011;11729;50.836;4.330;2023-10-31T09:04:46;10.55;;;8.00;;
23119;SDS011;11729;50.836;4.330;2023-10-31T09:07:11;13.90;;;7.68;;
23119;SDS011;11729;50.836;4.330;2023-10-31T09:09:39;9.32;;;7.65;;
23119;SDS011;11729;50.836;4.330;2023-10-31T09:12:05;8.20;;;6.70;;
23119;SDS011;11729;50.836;4.330;2023-10-31T09:14:31;8.73;;;6.70;;
23119;SDS011;11729;50.836;4.330;2023-10-31T09:16:56;9.35;;;7.28;;
23119;SDS011;11729;50.836;4.330;2023-10-31T09:19:22;7.85;;;6.88;;
23119;SDS011;11729;50.836;4.330;2023-10-31T09:21:48;11.68;;;7.50;;
23119;SDS011;11729;50.836;4.330;2023-10-31T09:24:13;11.50;;;7.78;;
23119;SDS011;11729;50.836;4.330;2023-10-31T09:26:42;9.32;;;7.35;;
23119;SDS011;11729;50.836;4.330;2023-10-31T09:29:09;11.23;;;8.02;;
23119;SDS011;11729;50.836;4.330;2023-10-31T09:31:35;8.77;;;7.75;;
23119;SDS011;11729;50.836;4.330;2023-10-31T09:34:01;11.38;;;7.72;;
23119;SDS011;11729;50.836;4.330;2023-10-31T09:36:29;12.20;;;8.33;;
23119;SDS011;11729;50.836;4.330;2023-10-31T09:38:59;11.75;;;7.47;;
23119;SDS011;11729;50.836;4.330;2023-10-31T09:41:25;13.38;;;7.97;;
23119;SDS011;11729;50.836;4.330;2023-10-31T09:43:50;13.57;;;8.40;;
23119;SDS011;11729;50.836;4.330;2023-10-31T09:46:16;17.10;;;8.63;;
23119;SDS011;11729;50.836;4.330;2023-10-31T09:48:43;10.48;;;8.23;;
23119;SDS011;11729;50.836;4.330;2023-10-31T09:51:08;12.25;;;8.13;;
23119;SDS011;11729;50.836;4.330;2023-10-31T09:53:37;13.82;;;8.25;;
23119;SDS011;11729;50.836;4.330;2023-10-31T09:56:04;10.13;;;8.77;;
23119;SDS011;11729;50.836;4.330;2023-10-31T09:58:31;15.27;;;8.10;;
23119;SDS011;11729;50.836;4.330;2023-10-31T10:00:56;12.95;;;8.30;;
23119;SDS011;11729;50.836;4.330;2023-10-31T10:03:22;10.63;;;8.35;;
23119;SDS011;11729;50.836;4.330;2023-10-31T10:05:49;12.77;;;8.07;;
23119;SDS011;11729;50.836;4.330;2023-10-31T10:08:15;13.23;;;7.78;;
23119;SDS011;11729;50.836;4.330;2023-10-31T10:10:41;16.15;;;7.97;;
23119;SDS011;11729;50.836;4.330;2023-10-31T10:13:07;15.50;;;8.35;;
23119;SDS011;11729;50.836;4.330;2023-10-31T10:15:43;14.30;;;8.50;;
23119;SDS011;11729;50.836;4.330;2023-10-31T10:18:10;14.15;;;9.05;;
23119;SDS011;11729;50.836;4.330;2023-10-31T10:21:05;18.80;;;7.88;;
23119;SDS011;11729;50.836;4.330;2023-10-31T10:23:32;16.33;;;8.60;;
23119;SDS011;11729;50.836;4.330;2023-10-31T10:25:59;13.25;;;8.10;;
23119;SDS011;11729;50.836;4.330;2023-10-31T10:28:26;12.75;;;8.45;;
23119;SDS011;11729;50.836;4.330;2023-10-31T10:30:52;18.33;;;8.68;;
23119;SDS011;11729;50.836;4.330;2023-10-31T10:33:19;11.98;;;7.95;;
23119;SDS011;11729;50.836;4.330;2023-10-31T10:35:45;10.90;;;8.10;;
23119;SDS011;11729;50.836;4.330;2023-10-31T10:38:12;17.65;;;9.13;;
23119;SDS011;11729;50.836;4.330;2023-10-31T10:40:45;12.35;;;8.15;;
23119;SDS011;11729;50.836;4.330;2023-10-31T10:43:22;11.90;;;8.05;;
23119;SDS011;11729;50.836;4.330;2023-10-31T10:48:21;11.32;;;8.30;;
23119;SDS011;11729;50.836;4.330;2023-10-31T10:50:59;14.88;;;8.60;;
23119;SDS011;11729;50.836;4.330;2023-10-31T10:53:34;14.35;;;8.25;;
23119;SDS011;11729;50.836;4.330;2023-10-31T10:56:16;11.52;;;8.02;;
23119;SDS011;11729;50.836;4.330;2023-10-31T10:58:52;16.07;;;9.10;;
23119;SDS011;11729;50.836;4.330;2023-10-31T11:01:24;14.50;;;8.93;;
23119;SDS011;11729;50.836;4.330;2023-10-31T11:03:50;12.32;;;9.18;;
23119;SDS011;11729;50.836;4.330;2023-10-31T11:06:18;14.55;;;9.93;;
23119;SDS011;11729;50.836;4.330;2023-10-31T11:08:44;14.32;;;9.18;;
23119;SDS011;11729;50.836;4.330;2023-10-31T11:11:11;14.93;;;10.88;;
23119;SDS011;11729;50.836;4.330;2023-10-31T11:13:37;14.18;;;10.98;;
23119;SDS011;11729;50.836;4.330;2023-10-31T11:16:05;24.25;;;11.88;;
23119;SDS011;11729;50.836;4.330;2023-10-31T11:18:37;22.30;;;13.00;;
23119;SDS011;11729;50.836;4.330;2023-10-31T11:21:03;25.10;;;14.63;;
23119;SDS011;11729;50.836;4.330;2023-10-31T11:23:29;24.17;;;15.93;;
23119;SDS011;11729;50.836;4.330;2023-10-31T11:25:55;25.45;;;16.50;;
23119;SDS011;11729;50.836;4.330;2023-10-31T11:28:21;24.50;;;16.35;;
23119;SDS011;11729;50.836;4.330;2023-10-31T11:30:49;25.48;;;17.38;;
23119;SDS011;11729;50.836;4.330;2023-10-31T11:33:22;25.08;;;17.92;;
23119;SDS011;11729;50.836;4.330;2023-10-31T11:35:49;24.80;;;16.60;;
23119;SDS011;11729;50.836;4.330;2023-10-31T11:38:16;22.67;;;16.23;;
23119;SDS011;11729;50.836;4.330;2023-10-31T11:45:40;25.25;;;17.55;;
23119;SDS011;11729;50.836;4.330;2023-10-31T11:48:07;24.67;;;16.15;;
23119;SDS011;11729;50.836;4.330;2023-10-31T11:50:35;26.02;;;16.50;;
23119;SDS011;11729;50.836;4.330;2023-10-31T11:53:05;25.05;;;17.20;;
23119;SDS011;11729;50.836;4.330;2023-10-31T11:55:47;29.38;;;18.20;;
23119;SDS011;11729;50.836;4.330;2023-10-31T11:58:20;28.15;;;18.45;;
23119;SDS011;11729;50.836;4.330;2023-10-31T12:00:47;30.60;;;16.73;;
23119;SDS011;11729;50.836;4.330;2023-10-31T12:03:19;21.88;;;15.15;;
23119;SDS011;11729;50.836;4.330;2023-10-31T12:05:56;21.23;;;14.00;;
23119;SDS011;11729;50.836;4.330;2023-10-31T12:08:28;19.92;;;13.30;;
23119;SDS011;11729;50.836;4.330;2023-10-31T12:11:02;18.55;;;11.80;;
23119;SDS011;11729;50.836;4.330;2023-10-31T12:13:29;13.48;;;7.63;;
23119;SDS011;11729;50.836;4.330;2023-10-31T12:15:55;4.20;;;4.00;;
23119;SDS011;11729;50.836;4.330;2023-10-31T12:20:50;4.10;;;3.90;;
23119;SDS011;11729;50.836;4.330;2023-10-31T12:23:17;4.40;;;4.20;;
23119;SDS011;11729;50.836;4.330;2023-10-31T12:25:49;4.10;;;3.90;;
23119;SDS011;11729;50.836;4.330;2023-10-31T12:28:18;3.90;;;3.70;;
23119;SDS011;11729;50.836;4.330;2023-10-31T12:30:46;4.82;;;4.60;;
23119;SDS011;11729;50.836;4.330;2023-10-31T12:33:16;4.00;;;3.80;;
23119;SDS011;11729;50.836;4.330;2023-10-31T12:35:43;3.90;;;3.70;;
23119;SDS011;11729;50.836;4.330;2023-10-31T12:38:12;4.03;;;3.83;;
23119;SDS011;11729;50.836;4.330;2023-10-31T12:40:42;4.50;;;4.30;;
23119;SDS011;11729;50.836;4.330;2023-10-31T12:43:09;3.90;;;3.70;;
23119;SDS011;11729;50.836;4.330;2023-10-31T12:45:35;3.90;;;3.70;;
23119;SDS011;11729;50.836;4.330;2023-10-31T12:48:02;4.03;;;3.83;;
23119;SDS011;11729;50.836;4.330;2023-10-31T12:50:33;4.10;;;3.90;;
23119;SDS011;11729;50.836;4.330;2023-10-31T12:52:59;4.07;;;3.88;;
23119;SDS011;11729;50.836;4.330;2023-10-31T12:55:26;3.90;;;3.70;;
23119;SDS011;11729;50.836;4.330;2023-10-31T12:57:55;4.00;;;3.80;;
23119;SDS011;11729;50.836;4.330;2023-10-31T13:00:23;3.90;;;3.70;;
23119;SDS011;11729;50.836;4.330;2023-10-31T13:03:00;4.10;;;3.90;;
23119;SDS011;11729;50.836;4.330;2023-10-31T13:05:27;4.10;;;3.90;;
23119;SDS011;11729;50.836;4.330;2023-10-31T13:07:53;7.78;;;4.40;;
23119;SDS011;11729;50.836;4.330;2023-10-31T13:10:21;4.20;;;4.00;;
23119;SDS011;11729;50.836;4.330;2023-10-31T13:12:51;4.03;;;3.83;;
23119;SDS011;11729;50.836;4.330;2023-10-31T13:15:18;4.00;;;3.80;;
23119;SDS011;11729;50.836;4.330;2023-10-31T13:17:45;4.20;;;4.00;;
23119;SDS011;11729;50.836;4.330;2023-10-31T13:20:11;4.13;;;3.92;;
23119;SDS011;11729;50.836;4.330;2023-10-31T13:22:38;4.00;;;3.80;;
23119;SDS011;11729;50.836;4.330;2023-10-31T13:25:05;4.03;;;3.83;;
23119;SDS011;11729;50.836;4.330;2023-10-31T13:30:03;4.28;;;4.07;;
23119;SDS011;11729;50.836;4.330;2023-10-31T13:32:30;5.95;;;5.63;;
23119;SDS011;11729;50.836;4.330;2023-10-31T13:34:56;4.18;;;3.97;;
23119;SDS011;11729;50.836;4.330;2023-10-31T13:37:22;4.38;;;4.18;;
23119;SDS011;11729;50.836;4.330;2023-10-31T13:39:48;4.00;;;3.80;;
23119;SDS011;11729;50.836;4.330;2023-10-31T13:42:14;4.20;;;4.00;;
23119;SDS011;11729;50.836;4.330;2023-10-31T13:44:43;4.00;;;3.80;;
23119;SDS011;11729;50.836;4.330;2023-10-31T13:47:09;4.10;;;3.90;;
23119;SDS011;11729;50.836;4.330;2023-10-31T13:49:35;4.10;;;3.90;;
23119;SDS011;11729;50.836;4.330;2023-10-31T13:52:02;5.07;;;4.35;;
23119;SDS011;11729;50.836;4.330;2023-10-31T13:54:28;4.10;;;3.90;;
23119;SDS011;11729;50.836;4.330;2023-10-31T13:56:54;4.25;;;4.05;;
23119;SDS011;11729;50.836;4.330;2023-10-31T13:59:20;4.00;;;3.80;;
23119;SDS011;11729;50.836;4.330;2023-10-31T14:01:46;3.92;;;3.72;;
23119;SDS011;11729;50.836;4.330;2023-10-31T14:04:12;3.85;;;3.67;;
23119;SDS011;11729;50.836;4.330;2023-10-31T14:06:41;3.90;;;3.70;;
23119;SDS011;11729;50.836;4.330;2023-10-31T14:09:07;3.90;;;3.70;;
23119;SDS011;11729;50.836;4.330;2023-10-31T14:11:36;3.97;;;3.78;;
23119;SDS011;11729;50.836;4.330;2023-10-31T14:14:02;3.83;;;3.63;;
23119;SDS011;11729;50.836;4.330;2023-10-31T14:16:50;4.05;;;3.85;;
23119;SDS011;11729;50.836;4.330;2023-10-31T14:19:16;3.70;;;3.60;;
23119;SDS011;11729;50.836;4.330;2023-10-31T14:21:45;3.80;;;3.70;;
23119;SDS011;11729;50.836;4.330;2023-10-31T14:24:11;3.70;;;3.60;;
23119;SDS011;11729;50.836;4.330;2023-10-31T14:26:36;3.70;;;3.60;;
23119;SDS011;11729;50.836;4.330;2023-10-31T14:29:03;3.95;;;3.75;;
23119;SDS011;11729;50.836;4.330;2023-10-31T14:31:29;3.78;;;3.67;;
23119;SDS011;11729;50.836;4.330;2023-10-31T14:33:56;4.00;;;3.80;;
23119;SDS011;11729;50.836;4.330;2023-10-31T14:36:22;4.20;;;4.00;;
23119;SDS011;11729;50.836;4.330;2023-10-31T14:38:48;4.00;;;3.80;;
23119;SDS011;11729;50.836;4.330;2023-10-31T14:41:14;4.07;;;3.88;;
23119;SDS011;11729;50.836;4.330;2023-10-31T14:43:39;4.10;;;3.90;;
23119;SDS011;11729;50.836;4.330;2023-10-31T14:46:05;3.90;;;3.70;;
23119;SDS011;11729;50.836;4.330;2023-10-31T14:48:32;4.07;;;3.88;;